🇳🇱 VeloStatistics

👤 Adam Pierzga

NationaliteitPOL
Geboortedatum1984-11-14
Overlijdensdatum -
Lengte / Gewicht?? cm / ?? kg
Profzeges0
Profzeges 20260
Wedstrijddagen146

🚴 Ploegenhistorie

Geen ploegen gevonden.

🏆 Resultaten (82)

Datum Pos Wedstrijd UCI Ploeg
2019-08-11 18 2019 | Tour de Guadeloupe, FRA (11.8) 2.2 -
2019-08-10 3 2019 | Tour de Guadeloupe, FRA | Rit 8 (10.8) 2.2 -
2019-08-10 7 2019 | Tour de Guadeloupe, FRA | Rit 9 (10.8) 2.2 -
2015-08-09 18 2015 | Tour de Guadeloupe, FRA (9.8) 2.2 -
2015-08-08 3 2015 | Tour de Guadeloupe, FRA | Rit 10 (8.8) 2.2 -
2015-08-02 6 2015 | Tour de Guadeloupe, FRA | Rit 3 (2.8) 2.2 -
2015-06-28 34 2015 | N.K. Polen, POL (28.6) NC -
2014-08-10 14 2014 | Tour de Guadeloupe, FRA (10.8) 2.2 -
2014-08-10 1 2014 | Tour de Guadeloupe, FRA | Rit 11 (10.8) 2.2 -
2014-08-09 4 2014 | Tour de Guadeloupe, FRA | Rit 10 (9.8) 2.2 -
2014-08-07 5 2014 | Tour de Guadeloupe, FRA | Rit 7 (7.8) 2.2 -
2014-08-03 8 2014 | Tour de Guadeloupe, FRA | Rit 3 (3.8) 2.2 -
2013-08-11 17 2013 | Puchar Uzdrowisk Karpackich, POL (11.8) 1.2 -
2013-06-23 23 2013 | N.K. Polen, POL (23.6) NC -
2013-06-09 22 2013 | Jurmala G.P., LAT (9.6) 1.1 -
2013-06-08 53 2013 | Riga G.P., LAT (8.6) 1.1 -
2013-05-05 67 2013 | Szlakiem Grodow Piastowskich, POL (5.5) 2.1 -
2013-05-04 18 2013 | Szlakiem Grodow Piastowskich, POL | Rit 3 (4.5) 2.1 -
2013-02-28 7 2013 | G.P. Al Massira, MAR (28.2) 1.2 -
2013-02-27 14 2013 | G.P. Oued Eddahab, MAR (27.2) 1.2 -
2013-02-26 7 2013 | G.P. Sakia El Hamra, MAR (26.2) 1.2 -
2012-08-11 4 2012 | Tour de Guadeloupe, FRA | Rit 9 (11.8) 2.2 -
2012-08-10 2 2012 | Tour de Guadeloupe, FRA | Rit 8 (10.8) 2.2 -
2012-08-08 3 2012 | Tour de Guadeloupe, FRA | Rit 6 (8.8) 2.2 -
2012-08-07 4 2012 | Tour de Guadeloupe, FRA | Rit 5 (7.8) 2.2 -
2012-08-05 8 2012 | Tour de Guadeloupe, FRA | Rit 2 (5.8) 2.2 -
2012-08-05 3 2012 | Tour de Guadeloupe, FRA | Rit 3 (5.8) 2.2 -
2012-07-08 3 2012 | Course de Solidarnosc et des Champions Olympiques, POL (8.7) 2.1 -
2012-07-08 11 2012 | Course de Solidarnosc et des Champions Olympiques, POL | Rit 6 (8.7) 2.1 -
2012-07-07 3 2012 | Course de Solidarnosc et des Champions Olympiques, POL | Rit 5 (7.7) 2.1 -
2012-06-24 13 2012 | N.K. Polen, POL (24.6) NC -
2012-04-07 10 2012 | Vuelta al Uruguay, URU | Rit 9 (7.4) 2.2 -
2012-04-05 5 2012 | Vuelta al Uruguay, URU | Rit 7 (5.4) 2.2 -
2012-04-01 9 2012 | Vuelta al Uruguay, URU | Rit 3 (1.4) 2.2 -
2011-08-14 8 2011 | Tour de Guadeloupe, FRA (14.8) 2.2 -
2011-08-14 8 2011 | Tour de Guadeloupe, FRA | Rit 11 (14.8) 2.2 -
2011-08-13 1 2011 | Tour de Guadeloupe, FRA | Rit 10 (13.8) 2.2 -
2011-08-13 7 2011 | Tour de Guadeloupe, FRA | Rit 9 (13.8) 2.2 -
2011-08-09 9 2011 | Tour de Guadeloupe, FRA | Rit 5 (9.8) 2.2 -
2011-08-08 4 2011 | Tour de Guadeloupe, FRA | Rit 4 (8.8) 2.2 -
2011-06-26 7 2011 | N.K. Polen, POL (26.6) NC -
2011-06-18 19 2011 | Tour of Malopolska, POL (18.6) 2.2 -
2011-06-17 6 2011 | Tour of Malopolska, POL | Rit 2 (17.6) 2.2 -
2010-02-28 10 2010 | Vuelta Indepencia Nacional, DOM (28.2) 2.2 -
2010-02-26 3 2010 | Vuelta Indepencia Nacional, DOM | Rit 7 (26.2) 2.2 -
2010-02-26 1 2010 | Vuelta Indepencia Nacional, DOM | Rit 8 (26.2) 2.2 -
2010-02-24 1 2010 | Vuelta Indepencia Nacional, DOM | Rit 5 (24.2) 2.2 -
2010-02-21 6 2010 | Vuelta Indepencia Nacional, DOM | Rit 1 (21.2) 2.2 -
2009-08-16 5 2009 | Tour de Guadeloupe, FRA (16.8) 2.2 -
2009-08-16 3 2009 | Tour de Guadeloupe, FRA | Rit 10 (16.8) 2.2 -